createdAt,value
2022-09-26T00:00:18.226Z,20.04
2022-09-26T00:02:51.507Z,20.03
2022-09-26T00:05:04.870Z,20.04
2022-09-26T00:07:18.214Z,20.02
2022-09-26T00:09:32.304Z,19.97
2022-09-26T00:11:45.771Z,19.93
2022-09-26T00:14:01.452Z,19.91
2022-09-26T00:16:16.840Z,19.79
2022-09-26T00:18:30.412Z,19.71
2022-09-26T00:20:45.161Z,19.66
2022-09-26T00:22:58.435Z,19.65
2022-09-26T00:25:14.036Z,19.61
2022-09-26T00:27:27.287Z,19.61
2022-09-26T00:29:40.511Z,19.56
2022-09-26T00:31:54.870Z,19.56
2022-09-26T00:34:08.616Z,19.51
2022-09-26T00:36:29.670Z,19.42
2022-09-26T00:38:50.466Z,19.32
2022-09-26T00:41:04.013Z,19.29
2022-09-26T00:43:33.742Z,19.33
2022-09-26T00:45:47.716Z,19.31
2022-09-26T00:48:05.047Z,19.26
2022-09-26T00:50:24.201Z,19.21
2022-09-26T00:52:40.330Z,19.21
2022-09-26T00:54:57.983Z,19.13
2022-09-26T00:57:16.064Z,18.99
2022-09-26T00:59:32.146Z,18.93
2022-09-26T01:01:46.375Z,18.93
2022-09-26T01:04:00.996Z,18.98
2022-09-26T01:06:15.236Z,19.03
2022-09-26T01:08:35.379Z,19.03
2022-09-26T01:10:48.873Z,19.00
2022-09-26T01:13:03.394Z,18.95
2022-09-26T01:15:17.460Z,18.90
2022-09-26T01:17:31.454Z,18.81
2022-09-26T01:20:02.826Z,18.71
2022-09-26T01:22:49.339Z,18.59
2022-09-26T01:25:22.285Z,18.53
2022-09-26T01:28:09.992Z,18.42
2022-09-26T01:30:27.831Z,18.30
2022-09-26T01:32:56.903Z,18.15
2022-09-26T01:35:20.873Z,18.04
2022-09-26T01:37:43.808Z,17.96
2022-09-26T01:40:07.301Z,17.88
2022-09-26T01:42:29.876Z,17.81
2022-09-26T01:44:45.307Z,17.76
2022-09-26T01:47:05.472Z,17.70
2022-09-26T01:49:22.931Z,17.65
2022-09-26T01:51:42.721Z,17.62
2022-09-26T01:53:59.975Z,17.52
2022-09-26T01:56:17.773Z,17.43
2022-09-26T01:58:36.965Z,17.39
2022-09-26T02:00:54.042Z,17.38
2022-09-26T02:03:09.553Z,17.37
2022-09-26T02:05:30.499Z,17.36
2022-09-26T02:07:48.028Z,17.33
2022-09-26T02:10:05.470Z,17.30
2022-09-26T02:12:34.062Z,17.29
2022-09-26T02:14:51.460Z,17.27
2022-09-26T02:17:09.803Z,17.26
2022-09-26T02:19:26.974Z,17.26
2022-09-26T02:21:40.842Z,17.25
2022-09-26T02:23:56.343Z,17.22
2022-09-26T02:26:10.422Z,17.20
2022-09-26T02:28:24.632Z,17.17
2022-09-26T02:30:38.648Z,17.13
2022-09-26T02:32:52.558Z,17.10
2022-09-26T02:35:37.919Z,17.09
2022-09-26T02:37:51.269Z,17.06
2022-09-26T02:40:05.179Z,17.04
2022-09-26T02:42:29.587Z,17.02
2022-09-26T02:44:54.786Z,16.99
2022-09-26T02:47:26.669Z,16.95
2022-09-26T02:50:04.357Z,16.92
2022-09-26T02:52:33.738Z,16.89
2022-09-26T02:54:57.069Z,16.86
2022-09-26T02:57:30.087Z,16.81
2022-09-26T02:59:46.840Z,16.77
2022-09-26T03:02:08.930Z,16.72
2022-09-26T03:04:33.791Z,16.68
2022-09-26T03:06:51.333Z,16.64
2022-09-26T03:09:06.955Z,16.63
2022-09-26T03:11:27.539Z,16.62
2022-09-26T03:13:44.037Z,16.59
2022-09-26T03:16:00.019Z,16.53
2022-09-26T03:18:18.321Z,16.49
2022-09-26T03:20:32.644Z,16.46
2022-09-26T03:22:46.972Z,16.43
2022-09-26T03:25:01.943Z,16.40
2022-09-26T03:27:20.094Z,16.38
2022-09-26T03:29:35.448Z,16.38
2022-09-26T03:31:51.549Z,16.35
2022-09-26T03:34:05.528Z,16.32
2022-09-26T03:36:18.915Z,16.29
2022-09-26T03:38:32.399Z,16.26
2022-09-26T03:40:56.979Z,16.23
2022-09-26T03:43:44.929Z,16.16
2022-09-26T03:45:58.534Z,16.14
2022-09-26T03:48:12.728Z,16.11
2022-09-26T03:50:26.224Z,16.08
2022-09-26T03:52:39.642Z,16.04
2022-09-26T03:54:54.434Z,16.00
2022-09-26T03:57:07.957Z,15.93
2022-09-26T03:59:24.233Z,15.90
2022-09-26T04:01:37.781Z,15.88
2022-09-26T04:03:52.757Z,15.86
2022-09-26T04:06:06.504Z,15.85
2022-09-26T04:08:19.927Z,15.85
2022-09-26T04:10:34.479Z,15.82
2022-09-26T04:12:48.653Z,15.79
2022-09-26T04:15:02.489Z,15.75
2022-09-26T04:17:18.001Z,15.71
2022-09-26T04:19:33.260Z,15.67
2022-09-26T04:21:46.933Z,15.63
2022-09-26T04:24:01.337Z,15.60
2022-09-26T04:26:21.733Z,15.57
2022-09-26T04:28:36.589Z,15.55
2022-09-26T04:30:50.748Z,15.52
2022-09-26T04:33:04.701Z,15.48
2022-09-26T04:35:18.063Z,15.44
2022-09-26T04:37:31.587Z,15.40
2022-09-26T04:39:44.993Z,15.36
2022-09-26T04:41:59.147Z,15.32
2022-09-26T04:44:13.995Z,15.29
2022-09-26T04:46:30.911Z,15.24
2022-09-26T04:48:45.516Z,15.20
2022-09-26T04:51:03.203Z,15.17
2022-09-26T04:53:16.415Z,15.14
2022-09-26T04:55:36.397Z,15.11
2022-09-26T04:57:52.153Z,15.08
2022-09-26T05:00:06.015Z,15.04
2022-09-26T05:02:21.426Z,15.00
2022-09-26T05:04:34.734Z,14.97
2022-09-26T05:06:48.249Z,14.94
2022-09-26T05:09:10.198Z,14.91
2022-09-26T05:11:31.307Z,14.85
2022-09-26T05:13:45.155Z,14.81
2022-09-26T05:15:59.498Z,14.77
2022-09-26T05:18:13.707Z,14.71
2022-09-26T05:20:30.273Z,14.68
2022-09-26T05:22:46.016Z,14.65
2022-09-26T05:25:16.014Z,14.65
2022-09-26T05:27:29.693Z,14.64
2022-09-26T05:29:42.858Z,14.63
2022-09-26T05:31:57.643Z,14.62
2022-09-26T05:34:19.494Z,14.60
2022-09-26T05:36:33.971Z,14.58
2022-09-26T05:38:47.359Z,14.57
2022-09-26T05:41:02.031Z,14.57
2022-09-26T05:43:15.367Z,14.56
2022-09-26T05:45:28.917Z,14.56
2022-09-26T05:47:43.687Z,14.55
2022-09-26T05:49:57.803Z,14.53
2022-09-26T05:52:11.502Z,14.52
2022-09-26T05:54:25.402Z,14.52
2022-09-26T05:56:39.856Z,14.51
2022-09-26T05:59:13.006Z,14.51
2022-09-26T06:01:44.617Z,14.50
2022-09-26T06:04:04.065Z,14.47
2022-09-26T06:06:23.487Z,14.45
2022-09-26T06:08:42.279Z,14.42
2022-09-26T06:11:09.478Z,14.40
2022-09-26T06:13:22.962Z,14.36
2022-09-26T06:15:37.495Z,14.33
2022-09-26T06:17:51.358Z,14.31
2022-09-26T06:20:04.746Z,14.28
2022-09-26T06:22:18.792Z,14.26
2022-09-26T06:24:33.901Z,14.25
2022-09-26T06:26:48.908Z,14.23
2022-09-26T06:29:02.959Z,14.21
2022-09-26T06:31:23.269Z,14.20
2022-09-26T06:33:58.390Z,14.19
2022-09-26T06:36:30.697Z,14.18
2022-09-26T06:38:44.142Z,14.17
2022-09-26T06:41:02.094Z,14.15
2022-09-26T06:43:15.698Z,14.14
2022-09-26T06:45:50.240Z,14.11
2022-09-26T06:48:13.127Z,14.08
2022-09-26T06:50:43.153Z,14.04
2022-09-26T06:52:56.479Z,14.00
2022-09-26T06:55:12.459Z,13.95
2022-09-26T06:57:26.017Z,13.92
2022-09-26T06:59:40.275Z,13.89
2022-09-26T07:02:05.378Z,13.87
2022-09-26T07:04:37.080Z,13.86
2022-09-26T07:06:53.217Z,13.85
2022-09-26T07:09:15.062Z,13.84
2022-09-26T07:12:09.420Z,13.81
2022-09-26T07:14:12.080Z,13.79
2022-09-26T07:16:25.629Z,13.75
2022-09-26T07:18:57.497Z,13.73
2022-09-26T07:21:46.474Z,13.70
2022-09-26T07:24:19.911Z,13.68
2022-09-26T07:26:33.322Z,13.66
2022-09-26T07:28:50.817Z,13.63
2022-09-26T07:31:07.313Z,13.61
2022-09-26T07:33:26.970Z,13.58
2022-09-26T07:35:45.626Z,13.55
2022-09-26T07:37:59.772Z,13.50
2022-09-26T07:40:15.506Z,13.45
2022-09-26T07:42:29.113Z,13.42
2022-09-26T07:47:32.433Z,13.39
2022-09-26T07:50:04.097Z,13.36
2022-09-26T07:52:37.491Z,13.35
2022-09-26T07:55:15.198Z,13.33
2022-09-26T07:57:49.591Z,13.31
2022-09-26T08:00:32.829Z,13.29
2022-09-26T08:03:06.075Z,13.27
2022-09-26T08:05:23.506Z,13.24
2022-09-26T08:07:38.470Z,13.23
2022-09-26T08:10:19.702Z,13.22
2022-09-26T08:12:59.920Z,13.21
2022-09-26T08:15:49.045Z,13.19
2022-09-26T08:18:10.030Z,13.18
2022-09-26T08:20:25.433Z,13.16
2022-09-26T08:22:41.964Z,13.16
2022-09-26T08:24:58.110Z,13.13
2022-09-26T08:27:28.211Z,13.10
2022-09-26T08:29:43.493Z,13.07
2022-09-26T08:31:56.970Z,13.06
2022-09-26T08:34:11.118Z,13.02
2022-09-26T08:36:24.380Z,12.99
2022-09-26T08:38:58.042Z,12.96
2022-09-26T08:42:04.773Z,12.92
2022-09-26T08:44:55.904Z,12.89
2022-09-26T08:47:44.033Z,12.87
2022-09-26T08:50:21.711Z,12.85
2022-09-26T08:52:44.005Z,12.83
2022-09-26T08:54:59.132Z,12.81
2022-09-26T08:57:29.597Z,12.79
2022-09-26T08:59:46.674Z,12.75
2022-09-26T09:02:08.263Z,12.72
2022-09-26T09:04:42.151Z,12.69
2022-09-26T09:07:01.864Z,12.66
2022-09-26T09:09:19.281Z,12.65
2022-09-26T09:12:08.688Z,12.64
2022-09-26T09:14:33.850Z,12.65
2022-09-26T09:16:58.900Z,12.64
2022-09-26T09:19:39.558Z,12.62
2022-09-26T09:22:36.656Z,12.60
2022-09-26T09:25:04.556Z,12.57
2022-09-26T09:30:17.113Z,12.52
2022-09-26T09:32:43.171Z,12.49
2022-09-26T09:35:22.721Z,12.46
2022-09-26T09:37:57.298Z,12.44
2022-09-26T09:40:33.973Z,12.41
2022-09-26T09:42:52.985Z,12.38
2022-09-26T09:45:09.149Z,12.34
2022-09-26T09:47:24.288Z,12.32
2022-09-26T09:49:38.839Z,12.29
2022-09-26T09:52:03.572Z,12.30
2022-09-26T09:54:43.578Z,12.28
2022-09-26T09:57:08.221Z,12.24
2022-09-26T09:59:44.330Z,12.22
2022-09-26T10:02:03.669Z,12.20
2022-09-26T10:04:36.069Z,12.19
2022-09-26T10:06:47.965Z,12.18
2022-09-26T10:09:35.928Z,12.17
2022-09-26T10:12:01.913Z,12.17
2022-09-26T10:14:34.664Z,12.14
2022-09-26T10:17:15.713Z,12.13
2022-09-26T10:19:43.433Z,12.11
2022-09-26T10:21:57.380Z,12.09
2022-09-26T10:24:25.247Z,12.09
2022-09-26T10:26:48.432Z,12.07
2022-09-26T10:29:25.224Z,12.08
2022-09-26T10:31:43.060Z,12.10
2022-09-26T10:34:06.742Z,12.12
2022-09-26T10:36:25.036Z,12.16
2022-09-26T10:39:12.262Z,12.21
2022-09-26T10:41:30.606Z,12.26
2022-09-26T10:43:55.232Z,12.31
2022-09-26T10:46:28.358Z,12.38
2022-09-26T10:49:03.410Z,12.45
2022-09-26T10:51:42.705Z,12.54
2022-09-26T10:53:58.550Z,12.61
2022-09-26T10:56:18.175Z,12.68
2022-09-26T10:58:33.645Z,12.72
2022-09-26T11:00:51.748Z,12.76
2022-09-26T11:03:07.787Z,12.78
2022-09-26T11:05:41.527Z,12.77
2022-09-26T11:08:02.870Z,12.74
2022-09-26T11:10:37.550Z,12.71
2022-09-26T11:13:07.174Z,12.69
2022-09-26T11:15:21.585Z,12.69
2022-09-26T11:17:51.913Z,12.69
2022-09-26T11:20:10.684Z,12.67
2022-09-26T11:22:28.517Z,12.68
2022-09-26T11:24:49.891Z,12.69
2022-09-26T11:27:15.255Z,12.69
2022-09-26T11:29:37.384Z,12.71
2022-09-26T11:32:00.055Z,12.75
2022-09-26T11:34:38.199Z,12.77
2022-09-26T11:37:14.609Z,12.77
2022-09-26T11:39:43.594Z,12.78
2022-09-26T11:42:10.592Z,12.81
2022-09-26T11:44:46.885Z,12.84
2022-09-26T11:47:22.347Z,12.88
2022-09-26T11:49:57.324Z,12.92
2022-09-26T11:52:48.369Z,12.96
2022-09-26T11:55:15.735Z,12.99
2022-09-26T11:57:43.200Z,13.00
2022-09-26T12:00:11.466Z,13.02
2022-09-26T12:02:58.556Z,13.00
2022-09-26T12:05:33.671Z,12.98
2022-09-26T12:07:52.298Z,12.97
2022-09-26T12:10:18.557Z,12.96
2022-09-26T12:12:43.105Z,12.95
2022-09-26T12:15:10.887Z,12.95
2022-09-26T12:17:28.760Z,12.95
2022-09-26T12:19:47.367Z,12.94
2022-09-26T12:22:25.743Z,12.93
2022-09-26T12:24:46.438Z,12.94
2022-09-26T12:27:08.133Z,12.94
2022-09-26T12:29:42.244Z,12.94
2022-09-26T12:32:10.721Z,12.96
2022-09-26T12:34:42.403Z,12.97
2022-09-26T12:37:05.635Z,12.98
2022-09-26T12:39:32.453Z,12.99
2022-09-26T12:42:09.596Z,13.01
2022-09-26T12:44:40.097Z,13.02
2022-09-26T12:47:08.554Z,13.05
2022-09-26T12:49:46.266Z,13.07
2022-09-26T12:52:05.429Z,13.08
2022-09-26T12:54:37.734Z,13.11
2022-09-26T12:57:06.173Z,13.13
2022-09-26T12:59:38.359Z,13.13
2022-09-26T13:02:18.151Z,13.12
2022-09-26T13:04:54.109Z,13.11
2022-09-26T13:07:20.058Z,13.11
2022-09-26T13:09:49.231Z,13.09
2022-09-26T13:12:18.075Z,13.06
2022-09-26T13:14:46.339Z,13.04
2022-09-26T13:17:12.705Z,13.02
2022-09-26T13:19:32.905Z,12.99
2022-09-26T13:21:52.280Z,12.96
2022-09-26T13:24:10.875Z,12.94
2022-09-26T13:26:30.207Z,12.93
2022-09-26T13:29:06.333Z,12.91
2022-09-26T13:31:24.205Z,12.89
2022-09-26T13:33:42.035Z,12.87
2022-09-26T13:35:59.268Z,12.88
2022-09-26T13:38:26.457Z,12.87
2022-09-26T13:40:48.416Z,12.89
2022-09-26T13:43:11.390Z,12.90
2022-09-26T13:45:33.516Z,12.91
2022-09-26T13:47:54.962Z,12.91
2022-09-26T13:50:24.486Z,12.93
2022-09-26T13:52:48.021Z,12.96
2022-09-26T13:55:06.568Z,12.98
2022-09-26T13:57:40.088Z,13.00
2022-09-26T13:59:59.702Z,13.01
2022-09-26T14:02:37.664Z,13.02
2022-09-26T14:04:52.039Z,13.06
2022-09-26T14:07:36.810Z,13.08
2022-09-26T14:10:08.741Z,13.11
2022-09-26T14:12:34.370Z,13.12
2022-09-26T14:14:54.082Z,13.14
2022-09-26T14:17:28.799Z,13.15
2022-09-26T14:19:46.173Z,13.16
2022-09-26T14:22:09.893Z,13.18
2022-09-26T14:24:44.228Z,13.20
2022-09-26T14:27:06.966Z,13.21
2022-09-26T14:29:28.111Z,13.22
2022-09-26T14:31:44.262Z,13.22
2022-09-26T14:34:14.806Z,13.23
2022-09-26T14:36:38.439Z,13.25
2022-09-26T14:38:56.026Z,13.27
2022-09-26T14:41:10.032Z,13.31
2022-09-26T14:43:26.946Z,13.34
2022-09-26T14:45:52.604Z,13.36
2022-09-26T14:48:17.113Z,13.40
2022-09-26T14:50:36.533Z,13.42
2022-09-26T14:52:57.613Z,13.45
2022-09-26T14:55:12.020Z,13.47
2022-09-26T14:57:32.833Z,13.49
2022-09-26T14:59:49.515Z,13.50
2022-09-26T15:02:25.547Z,13.52
2022-09-26T15:04:39.833Z,13.55
2022-09-26T15:06:54.973Z,13.58
2022-09-26T15:09:15.622Z,13.60
2022-09-26T15:11:41.242Z,13.63
2022-09-26T15:13:56.544Z,13.63
2022-09-26T15:16:33.635Z,13.66
2022-09-26T15:18:49.471Z,13.63
2022-09-26T15:21:07.408Z,13.63
2022-09-26T15:23:32.299Z,13.67
2022-09-26T15:25:45.930Z,13.70
2022-09-26T15:28:00.546Z,13.73
2022-09-26T15:30:23.753Z,13.76
2022-09-26T15:32:38.136Z,13.77
2022-09-26T15:34:52.287Z,13.80
2022-09-26T15:37:12.416Z,13.83
2022-09-26T15:39:45.681Z,13.87
2022-09-26T15:42:14.915Z,13.88
2022-09-26T15:44:30.316Z,13.91
2022-09-26T15:46:44.083Z,13.95
2022-09-26T15:48:58.694Z,13.98
2022-09-26T15:51:19.384Z,14.03
2022-09-26T15:53:38.444Z,14.08
2022-09-26T15:55:57.341Z,14.12
2022-09-26T15:58:16.580Z,14.14
2022-09-26T16:00:33.433Z,14.16
2022-09-26T16:02:47.809Z,14.18
2022-09-26T16:05:02.192Z,14.21
2022-09-26T16:07:23.935Z,14.26
2022-09-26T16:09:44.248Z,14.27
2022-09-26T16:12:01.673Z,14.29
2022-09-26T16:14:27.959Z,14.33
2022-09-26T16:16:41.400Z,14.38
2022-09-26T16:19:01.810Z,14.42
2022-09-26T16:21:26.982Z,14.48
2022-09-26T16:23:51.556Z,14.53
2022-09-26T16:26:06.230Z,14.58
2022-09-26T16:28:49.304Z,14.63
2022-09-26T16:31:12.288Z,14.67
2022-09-26T16:33:35.735Z,14.66
2022-09-26T16:35:52.765Z,14.66
2022-09-26T16:38:08.553Z,14.68
2022-09-26T16:40:23.659Z,14.74
2022-09-26T16:42:37.991Z,14.80
2022-09-26T16:44:57.346Z,14.84
2022-09-26T16:47:31.934Z,14.88
2022-09-26T16:49:50.663Z,14.94
2022-09-26T16:52:28.072Z,15.02
2022-09-26T16:54:41.508Z,15.09
2022-09-26T16:56:55.769Z,15.15
2022-09-26T16:59:17.784Z,15.19
2022-09-26T17:01:47.816Z,15.22
2022-09-26T17:04:01.635Z,15.22
2022-09-26T17:06:16.349Z,15.23
2022-09-26T17:08:30.269Z,15.28
2022-09-26T17:10:45.177Z,15.32
2022-09-26T17:13:03.699Z,15.38
2022-09-26T17:15:24.629Z,15.41
2022-09-26T17:17:39.600Z,15.46
2022-09-26T17:19:59.392Z,15.49
2022-09-26T17:22:18.814Z,15.56
2022-09-26T17:24:34.278Z,15.58
2022-09-26T17:26:52.411Z,15.66
2022-09-26T17:29:08.364Z,15.73
2022-09-26T17:31:23.329Z,15.79
2022-09-26T17:33:37.779Z,15.84
2022-09-26T17:35:51.386Z,15.89
2022-09-26T17:38:04.887Z,15.94
2022-09-26T17:40:25.356Z,15.93
2022-09-26T17:42:38.677Z,15.87
2022-09-26T17:44:52.243Z,15.89
2022-09-26T17:47:06.227Z,15.91
2022-09-26T17:49:23.956Z,15.93
2022-09-26T17:51:37.950Z,15.98
2022-09-26T17:53:53.531Z,16.04
2022-09-26T17:56:07.738Z,16.06
2022-09-26T17:58:21.452Z,16.02
2022-09-26T18:00:44.818Z,16.05
2022-09-26T18:03:05.058Z,16.08
2022-09-26T18:05:23.884Z,16.05
2022-09-26T18:07:41.753Z,16.10
2022-09-26T18:09:55.688Z,16.19
2022-09-26T18:12:13.528Z,16.25
2022-09-26T18:14:26.751Z,16.24
2022-09-26T18:16:40.150Z,16.19
2022-09-26T18:18:53.871Z,16.19
2022-09-26T18:21:07.212Z,16.27
2022-09-26T18:23:24.722Z,16.37
2022-09-26T18:25:40.301Z,16.49
2022-09-26T18:27:55.337Z,16.59
2022-09-26T18:30:10.262Z,16.68
2022-09-26T18:32:29.298Z,16.73
2022-09-26T18:34:42.609Z,16.80
2022-09-26T18:36:58.245Z,16.88
2022-09-26T18:39:11.692Z,16.98
2022-09-26T18:41:27.785Z,17.02
2022-09-26T18:43:43.565Z,17.05
2022-09-26T18:45:58.785Z,16.99
2022-09-26T18:48:16.381Z,16.86
2022-09-26T18:50:36.127Z,16.70
2022-09-26T18:52:49.472Z,16.64
2022-09-26T18:55:18.924Z,16.66
2022-09-26T18:57:48.674Z,16.70
2022-09-26T19:00:02.293Z,16.72
2022-09-26T19:02:25.032Z,16.73
2022-09-26T19:04:38.631Z,16.77
2022-09-26T19:07:01.115Z,16.75
2022-09-26T19:09:16.272Z,16.73
2022-09-26T19:11:30.442Z,16.71
2022-09-26T19:13:43.683Z,16.68
2022-09-26T19:15:57.025Z,16.67
2022-09-26T19:18:11.126Z,16.74
2022-09-26T19:20:24.467Z,16.78
2022-09-26T19:22:37.911Z,16.78
2022-09-26T19:24:53.796Z,16.74
2022-09-26T19:27:09.372Z,16.70
2022-09-26T19:29:31.896Z,16.68
2022-09-26T19:31:45.693Z,16.62
2022-09-26T19:34:00.105Z,16.60
2022-09-26T19:36:16.047Z,16.58
2022-09-26T19:38:30.360Z,16.56
2022-09-26T19:40:48.361Z,16.55
2022-09-26T19:43:02.216Z,16.54
2022-09-26T19:45:16.957Z,16.60
2022-09-26T19:47:31.716Z,16.66
2022-09-26T19:49:45.041Z,16.72
2022-09-26T19:51:58.380Z,16.76
2022-09-26T19:54:13.739Z,16.80
2022-09-26T19:56:27.638Z,16.84
2022-09-26T19:58:41.268Z,16.89
2022-09-26T20:00:57.251Z,16.90
2022-09-26T20:03:12.732Z,16.93
2022-09-26T20:05:28.113Z,16.98
2022-09-26T20:07:41.347Z,17.04
2022-09-26T20:09:56.017Z,17.09
2022-09-26T20:12:09.631Z,17.17
2022-09-26T20:14:28.694Z,17.23
2022-09-26T20:16:45.115Z,17.28
2022-09-26T20:18:58.836Z,17.25
2022-09-26T20:21:14.428Z,17.24
2022-09-26T20:23:29.613Z,17.20
2022-09-26T20:25:43.021Z,17.11
2022-09-26T20:27:56.362Z,17.12
2022-09-26T20:30:30.373Z,17.21
2022-09-26T20:32:44.035Z,17.22
2022-09-26T20:35:00.375Z,17.21
2022-09-26T20:37:16.153Z,17.15
2022-09-26T20:39:30.692Z,17.15
2022-09-26T20:41:45.666Z,17.13
2022-09-26T20:44:04.869Z,17.11
2022-09-26T20:46:19.326Z,17.16
2022-09-26T20:48:35.656Z,17.20
2022-09-26T20:50:49.725Z,17.22
2022-09-26T20:53:02.950Z,17.21
2022-09-26T20:55:20.785Z,17.21
2022-09-26T20:57:34.059Z,17.25
2022-09-26T20:59:47.349Z,17.30
2022-09-26T21:02:01.678Z,17.31
2022-09-26T21:04:20.154Z,17.29
2022-09-26T21:06:37.522Z,17.28
2022-09-26T21:08:50.980Z,17.28
2022-09-26T21:11:04.341Z,17.25
2022-09-26T21:13:18.083Z,17.25
2022-09-26T21:15:33.055Z,17.24
2022-09-26T21:17:47.018Z,17.21
2022-09-26T21:20:00.351Z,17.18
2022-09-26T21:22:38.076Z,17.22
2022-09-26T21:24:52.124Z,17.21
2022-09-26T21:27:05.375Z,17.23
2022-09-26T21:29:21.532Z,17.22
2022-09-26T21:31:36.656Z,17.19
2022-09-26T21:33:50.038Z,17.24
2022-09-26T21:36:04.064Z,17.24
2022-09-26T21:38:17.504Z,17.23
2022-09-26T21:40:35.032Z,17.22
2022-09-26T21:42:51.669Z,17.23
2022-09-26T21:45:09.190Z,17.25
2022-09-26T21:47:23.154Z,17.27
2022-09-26T21:49:36.479Z,17.29
2022-09-26T21:51:53.135Z,17.28
2022-09-26T21:54:10.313Z,17.28
2022-09-26T21:56:27.381Z,17.28
2022-09-26T21:58:44.507Z,17.30
2022-09-26T22:00:58.888Z,17.20
2022-09-26T22:03:12.379Z,17.14
2022-09-26T22:05:25.640Z,17.09
2022-09-26T22:07:38.956Z,17.04
2022-09-26T22:09:52.565Z,17.01
2022-09-26T22:12:06.068Z,16.97
2022-09-26T22:14:19.541Z,17.00
2022-09-26T22:16:32.880Z,17.02
2022-09-26T22:18:46.526Z,17.00
2022-09-26T22:21:06.056Z,17.01
2022-09-26T22:23:19.475Z,17.04
2022-09-26T22:25:32.984Z,17.01
2022-09-26T22:27:46.294Z,16.96
2022-09-26T22:29:59.699Z,16.90
2022-09-26T22:32:13.137Z,16.85
2022-09-26T22:34:27.412Z,16.81
2022-09-26T22:36:40.986Z,16.82
2022-09-26T22:38:54.541Z,16.81
2022-09-26T22:41:09.449Z,16.78
2022-09-26T22:43:22.673Z,16.74
2022-09-26T22:45:36.578Z,16.70
2022-09-26T22:47:49.913Z,16.71
2022-09-26T22:50:03.312Z,16.71
2022-09-26T22:52:16.615Z,16.70
2022-09-26T22:54:30.042Z,16.68
2022-09-26T22:56:43.415Z,16.66
2022-09-26T22:58:57.414Z,16.62
2022-09-26T23:01:12.787Z,16.59
2022-09-26T23:03:26.406Z,16.53
2022-09-26T23:05:40.870Z,16.49
2022-09-26T23:07:56.081Z,16.48
2022-09-26T23:10:09.577Z,16.46
2022-09-26T23:12:22.949Z,16.42
2022-09-26T23:14:36.207Z,16.36
2022-09-26T23:16:49.608Z,16.32
2022-09-26T23:19:03.673Z,16.27
2022-09-26T23:21:18.246Z,16.26
2022-09-26T23:23:31.569Z,16.22
2022-09-26T23:25:51.451Z,16.22
2022-09-26T23:28:04.869Z,16.17
2022-09-26T23:30:19.358Z,16.14
2022-09-26T23:32:32.602Z,16.14
2022-09-26T23:34:45.819Z,16.12
2022-09-26T23:36:59.647Z,16.12
2022-09-26T23:39:13.030Z,16.13
2022-09-26T23:41:26.360Z,16.12
2022-09-26T23:43:39.974Z,16.13
2022-09-26T23:45:53.387Z,16.14
2022-09-26T23:48:07.063Z,16.13
2022-09-26T23:50:20.383Z,16.13
2022-09-26T23:52:33.505Z,16.10
2022-09-26T23:54:46.887Z,16.04
2022-09-26T23:57:00.137Z,15.99
2022-09-26T23:59:13.510Z,15.98
